createdAt,value
2019-05-12T00:00:49.225Z,15.2
2019-05-12T00:10:48.520Z,15.1
2019-05-12T00:20:47.825Z,14.8
2019-05-12T00:30:48.699Z,14.6
2019-05-12T00:40:47.863Z,14.6
2019-05-12T00:50:45.625Z,14.6
2019-05-12T01:00:44.845Z,14.5
2019-05-12T01:10:44.054Z,14.6
2019-05-12T01:20:43.263Z,14.3
2019-05-12T01:33:42.646Z,14.2
2019-05-12T01:43:41.816Z,14.3
2019-05-12T01:53:41.028Z,14.3
2019-05-12T02:03:40.239Z,14.3
2019-05-12T02:13:39.453Z,14.1
2019-05-12T02:23:38.791Z,14.1
2019-05-12T02:33:37.921Z,14.1
2019-05-12T02:43:37.211Z,14
2019-05-12T02:56:25.071Z,14
2019-05-12T03:06:20.969Z,13.9
2019-05-12T03:16:20.224Z,13.9
2019-05-12T03:26:19.393Z,13.9
2019-05-12T03:36:18.796Z,13.9
2019-05-12T03:46:17.862Z,14.1
2019-05-12T03:56:17.059Z,14.4
2019-05-12T04:06:16.350Z,14.8
2019-05-12T04:16:16.315Z,15.2
2019-05-12T04:26:16.893Z,15.7
2019-05-12T04:36:14.925Z,16.3
2019-05-12T04:46:14.437Z,16.9
2019-05-12T04:56:19.086Z,17.7
2019-05-12T05:06:14.696Z,17.8
2019-05-12T05:16:14.032Z,17.1
2019-05-12T05:26:21.891Z,17.5
2019-05-12T05:36:14.900Z,18.1
2019-05-12T05:46:08.791Z,19.2
2019-05-12T05:56:08.003Z,20.4
2019-05-12T06:06:12.131Z,20.3
2019-05-12T06:16:11.537Z,20.9
2019-05-12T06:26:05.659Z,21.4
2019-05-12T06:36:07.409Z,21.3
2019-05-12T06:46:04.061Z,21.4
2019-05-12T06:56:04.431Z,21.7
2019-05-12T07:07:17.653Z,22.3
2019-05-12T07:17:16.873Z,22.8
2019-05-12T07:27:16.088Z,23.6
2019-05-12T07:37:15.358Z,23.4
2019-05-12T07:47:19.115Z,22.9
2019-05-12T07:57:17.260Z,22.5
2019-05-12T08:09:01.496Z,22.9
2019-05-12T08:19:00.722Z,24.1
2019-05-12T08:30:21.490Z,23.8
2019-05-12T08:40:20.712Z,23.8
2019-05-12T08:50:22.990Z,24.4
2019-05-12T09:00:19.141Z,25.7
2019-05-12T09:10:18.355Z,25.1
2019-05-12T09:20:17.578Z,24.4
2019-05-12T09:30:16.828Z,23.9
2019-05-12T09:40:20.535Z,23.7
2019-05-12T09:50:20.063Z,23.8
2019-05-12T10:00:14.705Z,23.6
2019-05-12T10:10:14.257Z,23.6
2019-05-12T10:23:10.080Z,23.6
2019-05-12T10:33:06.237Z,23.7
2019-05-12T10:43:05.394Z,23.7
2019-05-12T10:57:33.348Z,23.7
2019-05-12T11:07:31.421Z,23.7
2019-05-12T11:17:30.636Z,23.8
2019-05-12T11:27:13.522Z,24.3
2019-05-12T11:37:13.832Z,24.7
2019-05-12T11:47:14.606Z,24.1
2019-05-12T12:02:13.344Z,22.8
2019-05-12T12:12:10.189Z,22.3
2019-05-12T12:22:09.403Z,22.2
2019-05-12T12:32:09.772Z,22.3
2019-05-12T12:42:07.828Z,22.3
2019-05-12T12:52:07.043Z,22.1
2019-05-12T13:02:09.103Z,21.8
2019-05-12T13:12:14.131Z,21.8
2019-05-12T13:22:08.836Z,21.7
2019-05-12T13:32:04.182Z,21.7
2019-05-12T13:42:03.524Z,21.6
2019-05-12T13:52:04.186Z,21.5
2019-05-12T14:02:03.266Z,21.6
2019-05-12T14:12:01.198Z,21.6
2019-05-12T14:22:00.415Z,21.8
2019-05-12T14:36:26.443Z,21.4
2019-05-12T14:46:24.090Z,20.9
2019-05-12T14:56:23.202Z,20.8
2019-05-12T15:06:25.453Z,20.6
2019-05-12T15:16:19.617Z,20.4
2019-05-12T15:26:19.874Z,20.3
2019-05-12T15:36:18.116Z,20.2
2019-05-12T15:45:06.385Z,20.1
2019-05-12T15:59:39.128Z,19.8
2019-05-12T16:09:38.303Z,19.7
2019-05-12T16:19:37.524Z,19.6
2019-05-12T16:29:38.805Z,19.5
2019-05-12T16:39:41.899Z,19.5
2019-05-12T16:55:14.967Z,19.3
2019-05-12T17:05:19.890Z,19.1
2019-05-12T17:15:14.866Z,19.2
2019-05-12T17:25:15.181Z,19.2
2019-05-12T17:35:13.905Z,19.2
2019-05-12T17:45:15.673Z,19.2
2019-05-12T17:55:10.883Z,19.1
2019-05-12T18:05:12.126Z,19.1
2019-05-12T18:15:09.002Z,19
2019-05-12T18:25:08.229Z,18.9
2019-05-12T18:39:39.205Z,18.9
2019-05-12T18:49:41.950Z,18.9
2019-05-12T18:59:37.641Z,18.9
2019-05-12T19:09:36.800Z,18.9
2019-05-12T19:19:36.015Z,18.8
2019-05-12T19:29:43.582Z,18.6
2019-05-12T19:39:34.504Z,18.6
2019-05-12T19:49:46.156Z,18.4
2019-05-12T19:59:34.098Z,18.4
2019-05-12T20:09:32.404Z,18.4
2019-05-12T20:19:33.882Z,18.4
2019-05-12T20:29:35.263Z,18.3
2019-05-12T20:39:30.217Z,18.3
2019-05-12T20:49:29.439Z,18.3
2019-05-12T20:59:28.658Z,18.3
2019-05-12T21:12:59.285Z,18.2
2019-05-12T21:22:58.517Z,18.2
2019-05-12T21:33:01.202Z,18
2019-05-12T21:42:56.942Z,17.9
2019-05-12T21:52:59.238Z,17.8
2019-05-12T22:02:56.431Z,17.8
2019-05-12T22:12:54.644Z,17.6
2019-05-12T22:22:53.941Z,17.4
2019-05-12T22:32:54.101Z,17.3
2019-05-12T22:42:56.806Z,17.2
2019-05-12T22:52:53.266Z,17.1
2019-05-12T23:02:53.533Z,16.9
2019-05-12T23:12:55.769Z,16.8
2019-05-12T23:22:49.581Z,16.6
2019-05-12T23:32:51.233Z,16.4
2019-05-12T23:42:48.012Z,16.3
2019-05-12T23:52:47.220Z,16.2
